createdAt,value
2018-04-01T00:00:14.615Z,74.30
2018-04-01T00:02:40.560Z,74.40
2018-04-01T00:05:06.516Z,73.90
2018-04-01T00:07:32.466Z,74.20
2018-04-01T00:09:58.387Z,74.40
2018-04-01T00:12:24.338Z,74.40
2018-04-01T00:14:51.007Z,74.70
2018-04-01T00:17:16.938Z,74.70
2018-04-01T00:19:42.874Z,74.40
2018-04-01T00:22:08.819Z,75.20
2018-04-01T00:24:34.778Z,74.70
2018-04-01T00:27:01.461Z,74.40
2018-04-01T00:29:27.391Z,74.40
2018-04-01T00:31:53.359Z,74.30
2018-04-01T00:34:20.023Z,74.50
2018-04-01T00:36:45.934Z,74.50
2018-04-01T00:39:11.866Z,73.80
2018-04-01T00:41:38.515Z,74.70
2018-04-01T00:44:04.437Z,74.80
2018-04-01T00:46:30.334Z,73.80
2018-04-01T00:48:56.327Z,74.00
2018-04-01T00:51:22.250Z,73.80
2018-04-01T00:53:48.929Z,74.70
2018-04-01T00:56:14.851Z,74.60
2018-04-01T00:58:40.778Z,74.40
2018-04-01T01:01:06.731Z,73.90
2018-04-01T01:03:32.693Z,73.80
2018-04-01T01:05:59.366Z,74.60
2018-04-01T01:08:25.308Z,74.60
2018-04-01T01:10:51.287Z,74.80
2018-04-01T01:13:17.227Z,75.50
2018-04-01T01:15:43.154Z,75.30
2018-04-01T01:18:09.104Z,74.40
2018-04-01T01:20:35.039Z,74.40
2018-04-01T01:23:00.972Z,74.10
2018-04-01T01:25:27.671Z,74.50
2018-04-01T01:27:53.628Z,74.50
2018-04-01T01:30:19.680Z,74.50
2018-04-01T01:32:45.620Z,74.30
2018-04-01T01:35:11.575Z,75.50
2018-04-01T01:37:37.502Z,74.60
2018-04-01T01:40:03.446Z,74.40
2018-04-01T01:42:29.381Z,74.70
2018-04-01T01:44:56.079Z,75.60
2018-04-01T01:47:22.015Z,75.60
2018-04-01T01:49:47.967Z,75.50
2018-04-01T01:52:14.651Z,75.20
2018-04-01T01:54:40.595Z,75.20
2018-04-01T01:57:06.535Z,74.80
2018-04-01T01:59:33.219Z,74.80
2018-04-01T02:01:59.151Z,74.90
2018-04-01T02:04:25.093Z,75.30
2018-04-01T02:06:51.005Z,74.70
2018-04-01T02:09:16.951Z,75.00
2018-04-01T02:11:42.883Z,74.60
2018-04-01T02:14:09.583Z,75.00
2018-04-01T02:16:35.530Z,74.90
2018-04-01T02:19:01.499Z,74.80
2018-04-01T02:21:27.423Z,75.30
2018-04-01T02:23:53.353Z,75.10
2018-04-01T02:26:19.286Z,75.10
2018-04-01T02:28:45.197Z,75.50
2018-04-01T02:31:11.136Z,75.30
2018-04-01T02:33:37.060Z,75.40
2018-04-01T02:36:02.999Z,75.20
2018-04-01T02:38:28.947Z,75.20
2018-04-01T02:40:54.876Z,75.10
2018-04-01T02:43:21.578Z,75.00
2018-04-01T02:45:47.518Z,75.00
2018-04-01T02:48:13.478Z,74.90
2018-04-01T02:50:39.444Z,76.00
2018-04-01T02:53:05.378Z,76.20
2018-04-01T02:55:31.315Z,76.00
2018-04-01T02:57:57.996Z,75.30
2018-04-01T03:00:23.948Z,75.30
2018-04-01T03:02:49.891Z,75.60
2018-04-01T03:05:15.831Z,75.70
2018-04-01T03:07:42.491Z,75.80
2018-04-01T03:10:08.443Z,75.90
2018-04-01T03:12:34.371Z,75.40
2018-04-01T03:15:00.340Z,75.60
2018-04-01T03:17:26.258Z,76.50
2018-04-01T03:19:52.207Z,77.40
2018-04-01T03:22:18.159Z,76.70
2018-04-01T03:24:44.118Z,76.30
2018-04-01T03:27:10.790Z,75.70
2018-04-01T03:29:36.727Z,75.70
2018-04-01T03:32:02.671Z,76.20
2018-04-01T03:34:28.614Z,76.40
2018-04-01T03:36:55.297Z,76.80
2018-04-01T03:39:21.227Z,76.90
2018-04-01T03:41:47.175Z,76.60
2018-04-01T03:44:13.114Z,76.50
2018-04-01T03:46:39.055Z,76.30
2018-04-01T03:49:05.727Z,77.30
2018-04-01T03:51:31.699Z,77.30
2018-04-01T03:53:58.392Z,76.30
2018-04-01T03:56:24.361Z,76.30
2018-04-01T03:58:51.043Z,76.90
2018-04-01T04:01:17.004Z,76.60
2018-04-01T04:03:42.961Z,76.30
2018-04-01T04:06:08.916Z,76.10
2018-04-01T04:08:34.863Z,75.80
2018-04-01T04:11:00.825Z,76.00
2018-04-01T04:13:27.498Z,77.40
2018-04-01T04:15:53.439Z,77.40
2018-04-01T04:18:19.379Z,76.80
2018-04-01T04:20:45.319Z,78.30
2018-04-01T04:23:11.255Z,77.80
2018-04-01T04:25:37.928Z,76.90
2018-04-01T04:28:03.874Z,76.90
2018-04-01T04:30:29.819Z,77.30
2018-04-01T04:32:55.819Z,77.20
2018-04-01T04:35:21.756Z,76.40
2018-04-01T04:37:47.703Z,76.60
2018-04-01T04:40:14.375Z,76.90
2018-04-01T04:42:40.331Z,77.00
2018-04-01T04:45:06.267Z,77.20
2018-04-01T04:47:32.246Z,76.60
2018-04-01T04:49:58.186Z,76.80
2018-04-01T04:52:24.194Z,77.00
2018-04-01T04:54:50.127Z,77.00
2018-04-01T04:57:16.113Z,76.40
2018-04-01T04:59:42.055Z,76.80
2018-04-01T05:02:07.992Z,77.40
2018-04-01T05:04:33.951Z,77.60
2018-04-01T05:07:00.619Z,77.00
2018-04-01T05:09:26.559Z,77.00
2018-04-01T05:11:52.494Z,77.70
2018-04-01T05:14:18.475Z,76.90
2018-04-01T05:16:44.411Z,76.50
2018-04-01T05:19:10.363Z,76.60
2018-04-01T05:21:36.350Z,76.40
2018-04-01T05:24:02.330Z,76.90
2018-04-01T05:26:29.760Z,77.10
2018-04-01T05:28:55.701Z,77.00
2018-04-01T05:31:22.411Z,78.40
2018-04-01T05:33:48.350Z,78.40
2018-04-01T05:36:14.287Z,77.90
2018-04-01T05:38:40.235Z,78.00
2018-04-01T05:41:06.917Z,77.50
2018-04-01T05:43:33.009Z,78.20
2018-04-01T05:45:58.962Z,77.20
2018-04-01T05:48:24.922Z,76.80
2018-04-01T05:50:50.871Z,76.80
2018-04-01T05:53:17.542Z,76.40
2018-04-01T05:55:43.474Z,76.40
2018-04-01T05:58:09.386Z,77.20
2018-04-01T06:00:35.316Z,77.40
2018-04-01T06:03:01.231Z,76.90
2018-04-01T06:05:27.157Z,76.30
2018-04-01T06:07:53.093Z,76.70
2018-04-01T06:10:19.048Z,77.80
2018-04-01T06:12:45.732Z,77.80
2018-04-01T06:15:11.682Z,77.40
2018-04-01T06:17:37.615Z,77.30
2018-04-01T06:20:03.595Z,77.10
2018-04-01T06:22:29.558Z,76.70
2018-04-01T06:24:55.503Z,76.60
2018-04-01T06:27:21.458Z,76.30
2018-04-01T06:29:47.390Z,76.40
2018-04-01T06:32:13.322Z,76.30
2018-04-01T06:34:39.278Z,77.10
2018-04-01T06:37:05.203Z,76.90
2018-04-01T06:39:31.914Z,77.10
2018-04-01T06:41:57.851Z,77.10
2018-04-01T06:44:23.799Z,76.70
2018-04-01T06:46:49.715Z,76.20
2018-04-01T06:49:15.640Z,77.10
2018-04-01T06:51:42.343Z,76.90
2018-04-01T06:54:08.307Z,76.90
2018-04-01T06:56:34.990Z,77.20
2018-04-01T06:59:00.937Z,77.20
2018-04-01T07:01:26.887Z,76.30
2018-04-01T07:03:53.589Z,76.70
2018-04-01T07:06:19.568Z,76.70
2018-04-01T07:08:45.507Z,77.80
2018-04-01T07:11:11.408Z,77.10
2018-04-01T07:13:38.063Z,76.40
2018-04-01T07:16:04.019Z,76.30
2018-04-01T07:18:29.973Z,77.20
2018-04-01T07:20:56.659Z,77.50
2018-04-01T07:23:22.599Z,77.50
2018-04-01T07:25:48.555Z,77.80
2018-04-01T07:28:15.218Z,76.50
2018-04-01T07:30:41.191Z,76.60
2018-04-01T07:33:07.160Z,76.70
2018-04-01T07:35:33.102Z,77.60
2018-04-01T07:37:59.054Z,77.20
2018-04-01T07:40:24.990Z,76.80
2018-04-01T07:42:50.936Z,76.50
2018-04-01T07:45:16.916Z,77.10
2018-04-01T07:47:42.881Z,76.40
2018-04-01T07:50:08.891Z,77.10
2018-04-01T07:52:35.587Z,76.60
2018-04-01T07:55:01.522Z,76.50
2018-04-01T07:57:28.990Z,75.20
2018-04-01T07:59:54.923Z,75.20
2018-04-01T08:02:22.555Z,76.20
2018-04-01T08:04:48.520Z,76.10
2018-04-01T08:07:15.222Z,76.70
2018-04-01T08:09:41.170Z,76.70
2018-04-01T08:12:07.882Z,76.80
2018-04-01T08:14:33.815Z,76.30
2018-04-01T08:16:59.768Z,75.80
2018-04-01T08:19:26.447Z,76.40
2018-04-01T08:21:52.409Z,76.40
2018-04-01T08:24:19.093Z,76.00
2018-04-01T08:26:45.047Z,76.10
2018-04-01T08:29:11.016Z,75.30
2018-04-01T08:31:36.955Z,76.30
2018-04-01T08:34:02.911Z,75.50
2018-04-01T08:36:28.877Z,75.60
2018-04-01T08:38:55.847Z,75.20
2018-04-01T08:41:21.859Z,75.20
2018-04-01T08:43:47.860Z,75.60
2018-04-01T08:46:14.535Z,75.00
2018-04-01T08:48:40.474Z,75.10
2018-04-01T08:51:06.415Z,74.70
2018-04-01T08:53:32.359Z,74.90
2018-04-01T08:55:58.290Z,75.10
2018-04-01T08:58:25.009Z,75.00
2018-04-01T09:00:50.952Z,75.00
2018-04-01T09:03:17.846Z,76.10
2018-04-01T09:05:44.107Z,76.10
2018-04-01T09:08:11.530Z,75.60
2018-04-01T09:10:37.719Z,75.60
2018-04-01T09:13:03.742Z,75.00
2018-04-01T09:15:29.662Z,74.10
2018-04-01T09:17:56.355Z,75.80
2018-04-01T09:20:22.406Z,75.90
2018-04-01T09:22:48.387Z,75.40
2018-04-01T09:25:14.376Z,74.90
2018-04-01T09:27:40.395Z,75.20
2018-04-01T09:30:07.104Z,75.10
2018-04-01T09:32:33.479Z,75.10
2018-04-01T09:34:59.454Z,75.00
2018-04-01T09:37:25.471Z,75.70
2018-04-01T09:39:51.470Z,74.70
2018-04-01T09:42:17.438Z,75.20
2018-04-01T09:44:43.487Z,75.20
2018-04-01T09:47:09.424Z,77.10
2018-04-01T09:49:35.410Z,63.20
2018-04-01T09:52:02.102Z,63.50
2018-04-01T09:54:28.072Z,62.90
2018-04-01T09:56:54.755Z,69.80
2018-04-01T09:59:20.876Z,69.80
2018-04-01T10:01:46.901Z,71.70
2018-04-01T10:04:12.899Z,72.80
2018-04-01T10:06:39.637Z,72.90
2018-04-01T10:09:05.705Z,72.80
2018-04-01T10:11:31.685Z,72.90
2018-04-01T10:13:58.414Z,73.10
2018-04-01T10:16:25.150Z,72.90
2018-04-01T10:18:51.916Z,73.90
2018-04-01T10:21:17.938Z,73.80
2018-04-01T10:23:43.935Z,74.10
2018-04-01T10:26:10.691Z,73.50
2018-04-01T10:28:37.431Z,74.20
2018-04-01T10:31:03.442Z,74.30
2018-04-01T10:33:30.187Z,73.70
2018-04-01T10:35:56.214Z,73.80
2018-04-01T10:38:22.191Z,74.00
2018-04-01T10:40:48.183Z,74.30
2018-04-01T10:43:14.183Z,73.00
2018-04-01T10:45:40.923Z,72.80
2018-04-01T10:48:08.192Z,73.30
2018-04-01T10:50:34.955Z,72.60
2018-04-01T10:53:01.104Z,72.40
2018-04-01T10:55:28.807Z,74.10
2018-04-01T10:57:57.415Z,74.10
2018-04-01T11:00:23.355Z,74.20
2018-04-01T11:02:49.331Z,74.40
2018-04-01T11:05:15.270Z,74.30
2018-04-01T11:07:41.934Z,72.70
2018-04-01T11:10:07.858Z,72.70
2018-04-01T11:12:33.778Z,73.00
2018-04-01T11:14:59.690Z,72.50
2018-04-01T11:17:25.631Z,71.70
2018-04-01T11:19:51.574Z,71.50
2018-04-01T11:22:17.508Z,73.60
2018-04-01T11:24:43.458Z,72.80
2018-04-01T11:27:10.144Z,72.00
2018-04-01T11:29:36.087Z,71.90
2018-04-01T11:32:02.134Z,67.60
2018-04-01T11:34:28.099Z,69.10
2018-04-01T11:36:54.059Z,68.80
2018-04-01T11:39:20.011Z,69.20
2018-04-01T11:41:47.030Z,68.10
2018-04-01T11:44:13.077Z,68.10
2018-04-01T11:46:39.046Z,69.50
2018-04-01T11:49:04.988Z,71.10
2018-04-01T11:51:31.042Z,69.80
2018-04-01T11:53:59.919Z,70.40
2018-04-01T11:56:25.921Z,69.30
2018-04-01T11:58:51.858Z,69.20
2018-04-01T12:01:17.774Z,69.00
2018-04-01T12:03:43.935Z,69.50
2018-04-01T12:06:10.606Z,66.40
2018-04-01T12:08:36.555Z,66.60
2018-04-01T12:11:02.521Z,65.90
2018-04-01T12:13:29.202Z,67.00
2018-04-01T12:15:55.140Z,67.00
2018-04-01T12:18:21.183Z,65.10
2018-04-01T12:20:47.103Z,66.30
2018-04-01T12:23:13.051Z,67.90
2018-04-01T12:25:39.015Z,65.40
2018-04-01T12:28:05.018Z,65.20
2018-04-01T12:30:31.223Z,68.00
2018-04-01T12:32:57.197Z,63.30
2018-04-01T12:35:23.139Z,61.60
2018-04-01T12:37:49.869Z,62.30
2018-04-01T12:40:15.790Z,62.20
2018-04-01T12:42:41.770Z,62.40
2018-04-01T12:45:07.687Z,61.30
2018-04-01T12:47:33.626Z,63.10
2018-04-01T12:49:59.616Z,62.00
2018-04-01T12:52:26.299Z,60.50
2018-04-01T12:54:52.320Z,60.60
2018-04-01T12:57:18.374Z,61.40
2018-04-01T12:59:44.394Z,60.40
2018-04-01T13:02:10.330Z,59.40
2018-04-01T13:04:36.278Z,58.70
2018-04-01T13:07:02.200Z,59.20
2018-04-01T13:09:28.155Z,58.50
2018-04-01T13:11:54.075Z,57.80
2018-04-01T13:14:20.275Z,57.70
2018-04-01T13:16:46.275Z,57.80
2018-04-01T13:19:12.971Z,58.30
2018-04-01T13:21:38.907Z,58.30
2018-04-01T13:24:04.855Z,59.00
2018-04-01T13:26:31.531Z,58.40
2018-04-01T13:28:57.502Z,58.40
2018-04-01T13:31:23.463Z,58.60
2018-04-01T13:33:49.411Z,58.70
2018-04-01T13:36:15.335Z,58.40
2018-04-01T13:38:41.278Z,59.00
2018-04-01T13:41:07.322Z,59.50
2018-04-01T13:43:33.320Z,58.80
2018-04-01T13:45:59.387Z,57.50
2018-04-01T13:48:26.091Z,57.70
2018-04-01T13:50:52.042Z,57.70
2018-04-01T13:53:18.731Z,56.70
2018-04-01T13:55:44.655Z,56.70
2018-04-01T13:58:10.643Z,57.10
2018-04-01T14:00:36.574Z,57.30
2018-04-01T14:03:02.499Z,55.30
2018-04-01T14:05:28.467Z,56.40
2018-04-01T14:07:54.435Z,54.20
2018-04-01T14:10:20.434Z,55.90
2018-04-01T14:12:46.354Z,56.10
2018-04-01T14:15:12.299Z,55.10
2018-04-01T14:17:38.964Z,55.70
2018-04-01T14:20:04.934Z,55.70
2018-04-01T14:22:30.885Z,54.90
2018-04-01T14:24:56.838Z,53.70
2018-04-01T14:27:22.760Z,55.20
2018-04-01T14:29:50.343Z,55.60
2018-04-01T14:32:16.887Z,55.30
2018-04-01T14:34:43.619Z,53.10
2018-04-01T14:37:09.547Z,52.90
2018-04-01T14:39:35.499Z,52.90
2018-04-01T14:42:02.178Z,51.40
2018-04-01T14:44:28.134Z,51.50
2018-04-01T14:46:54.078Z,50.60
2018-04-01T14:49:20.741Z,49.80
2018-04-01T14:51:46.721Z,49.80
2018-04-01T14:54:12.645Z,50.70
2018-04-01T14:56:38.573Z,50.80
2018-04-01T14:59:04.486Z,52.00
2018-04-01T15:01:30.401Z,51.50
2018-04-01T15:03:56.318Z,51.90
2018-04-01T15:06:22.301Z,51.30
2018-04-01T15:08:48.295Z,51.80
2018-04-01T15:11:14.983Z,50.00
2018-04-01T15:13:40.925Z,50.00
2018-04-01T15:16:06.863Z,49.60
2018-04-01T15:18:33.546Z,47.50
2018-04-01T15:20:59.482Z,47.50
2018-04-01T15:23:25.390Z,46.60
2018-04-01T15:25:51.339Z,46.80
2018-04-01T15:28:17.266Z,45.80
2018-04-01T15:30:43.231Z,47.60
2018-04-01T15:33:09.897Z,46.00
2018-04-01T15:35:35.843Z,46.00
2018-04-01T15:38:01.771Z,47.00
2018-04-01T15:40:27.828Z,46.40
2018-04-01T15:42:54.523Z,46.40
2018-04-01T15:45:20.471Z,46.40
2018-04-01T15:47:46.419Z,45.80
2018-04-01T15:50:12.363Z,48.20
2018-04-01T15:52:38.340Z,48.70
2018-04-01T15:55:05.019Z,48.00
2018-04-01T15:57:30.961Z,48.00
2018-04-01T15:59:56.877Z,49.00
2018-04-01T16:02:22.805Z,49.00
2018-04-01T16:04:48.721Z,48.90
2018-04-01T16:07:14.679Z,50.20
2018-04-01T16:09:40.606Z,51.10
2018-04-01T16:12:06.557Z,51.70
2018-04-01T16:14:32.482Z,51.80
2018-04-01T16:16:58.409Z,51.80
2018-04-01T16:19:24.578Z,51.70
2018-04-01T16:21:50.522Z,52.90
2018-04-01T16:24:16.442Z,53.20
2018-04-01T16:26:42.390Z,52.70
2018-04-01T16:29:09.051Z,53.10
2018-04-01T16:31:34.980Z,53.30
2018-04-01T16:34:00.923Z,52.80
2018-04-01T16:36:26.871Z,53.40
2018-04-01T16:38:52.870Z,53.70
2018-04-01T16:41:18.814Z,53.90
2018-04-01T16:43:45.110Z,54.60
2018-04-01T16:46:11.838Z,54.00
2018-04-01T16:48:37.771Z,54.00
2018-04-01T16:51:03.727Z,53.90
2018-04-01T16:53:29.683Z,54.30
2018-04-01T16:55:55.619Z,55.00
2018-04-01T16:58:21.579Z,54.70
2018-04-01T17:00:47.555Z,54.70
2018-04-01T17:03:13.515Z,54.90
2018-04-01T17:05:39.462Z,54.80
2018-04-01T17:08:06.176Z,55.60
2018-04-01T17:10:32.143Z,55.60
2018-04-01T17:12:58.909Z,55.80
2018-04-01T17:15:24.875Z,55.80
2018-04-01T17:17:50.831Z,54.70
2018-04-01T17:20:16.767Z,55.60
2018-04-01T17:22:42.702Z,55.60
2018-04-01T17:25:08.631Z,56.50
2018-04-01T17:27:35.715Z,56.70
2018-04-01T17:30:01.657Z,56.80
2018-04-01T17:32:28.340Z,56.60
2018-04-01T17:34:54.282Z,56.50
2018-04-01T17:37:20.223Z,56.80
2018-04-01T17:39:46.182Z,57.90
2018-04-01T17:42:12.115Z,57.60
2018-04-01T17:44:38.076Z,58.20
2018-04-01T17:47:04.011Z,58.40
2018-04-01T17:49:29.995Z,58.30
2018-04-01T17:51:55.959Z,58.50
2018-04-01T17:54:21.897Z,58.10
2018-04-01T17:56:48.586Z,58.60
2018-04-01T17:59:14.518Z,58.60
2018-04-01T18:01:40.462Z,58.40
2018-04-01T18:04:06.443Z,58.90
2018-04-01T18:06:32.499Z,60.10
2018-04-01T18:08:58.469Z,60.50
2018-04-01T18:11:24.411Z,60.90
2018-04-01T18:13:50.362Z,61.20
2018-04-01T18:16:16.301Z,61.50
2018-04-01T18:18:43.010Z,63.00
2018-04-01T18:21:09.091Z,62.40
2018-04-01T18:23:35.026Z,62.40
2018-04-01T18:26:00.961Z,62.20
2018-04-01T18:28:26.906Z,62.50
2018-04-01T18:30:52.887Z,63.00
2018-04-01T18:33:18.840Z,63.00
2018-04-01T18:35:44.792Z,63.40
2018-04-01T18:38:11.476Z,63.90
2018-04-01T18:40:37.417Z,63.30
2018-04-01T18:43:03.353Z,63.10
2018-04-01T18:45:29.294Z,63.30
2018-04-01T18:47:55.218Z,63.50
2018-04-01T18:50:21.161Z,63.90
2018-04-01T18:52:47.830Z,64.60
2018-04-01T18:55:13.776Z,64.60
2018-04-01T18:57:39.766Z,63.90
2018-04-01T19:00:05.731Z,64.00
2018-04-01T19:02:31.672Z,64.50
2018-04-01T19:04:57.619Z,64.50
2018-04-01T19:07:23.556Z,64.40
2018-04-01T19:09:49.510Z,64.40
2018-04-01T19:12:15.434Z,64.40
2018-04-01T19:14:41.378Z,64.50
2018-04-01T19:17:07.350Z,64.50
2018-04-01T19:19:33.398Z,64.90
2018-04-01T19:22:06.390Z,64.50
2018-04-01T19:24:32.380Z,64.50
2018-04-01T19:26:58.386Z,64.40
2018-04-01T19:29:24.517Z,64.60
2018-04-01T19:31:50.512Z,64.50
2018-04-01T19:34:16.499Z,64.60
2018-04-01T19:36:42.498Z,64.30
2018-04-01T19:39:08.488Z,64.00
2018-04-01T19:41:35.245Z,64.00
2018-04-01T19:44:01.283Z,64.00
2018-04-01T19:46:27.282Z,64.00
2018-04-01T19:48:54.006Z,63.50
2018-04-01T19:51:20.003Z,63.40
2018-04-01T19:53:45.982Z,63.30
2018-04-01T19:56:11.984Z,63.40
2018-04-01T19:58:38.714Z,63.60
2018-04-01T20:01:05.554Z,63.10
2018-04-01T20:03:31.531Z,63.10
2018-04-01T20:05:57.551Z,62.80
2018-04-01T20:08:23.710Z,63.10
2018-04-01T20:10:50.622Z,62.80
2018-04-01T20:13:16.642Z,62.90
2018-04-01T20:15:42.646Z,63.70
2018-04-01T20:18:08.646Z,62.80
2018-04-01T20:20:34.618Z,63.20
2018-04-01T20:23:00.606Z,64.00
2018-04-01T20:25:26.591Z,63.30
2018-04-01T20:27:52.571Z,63.30
2018-04-01T20:30:19.332Z,63.30
2018-04-01T20:32:47.079Z,63.40
2018-04-01T20:35:13.054Z,63.60
2018-04-01T20:37:39.079Z,64.10
2018-04-01T20:40:05.818Z,65.00
2018-04-01T20:42:31.843Z,64.30
2018-04-01T20:44:57.823Z,64.10
2018-04-01T20:47:23.814Z,64.40
2018-04-01T20:49:50.759Z,64.30
2018-04-01T20:52:17.527Z,65.00
2018-04-01T20:54:43.542Z,65.00
2018-04-01T20:57:10.269Z,64.80
2018-04-01T20:59:36.996Z,64.80
2018-04-01T21:02:03.730Z,64.70
2018-04-01T21:04:30.570Z,64.30
2018-04-01T21:06:56.574Z,64.40
2018-04-01T21:09:22.590Z,64.40
2018-04-01T21:11:48.570Z,64.70
2018-04-01T21:14:14.887Z,64.90
2018-04-01T21:16:41.624Z,64.40
2018-04-01T21:19:08.366Z,64.90
2018-04-01T21:21:35.155Z,65.10
2018-04-01T21:24:01.153Z,65.10
2018-04-01T21:26:27.179Z,64.80
2018-04-01T21:28:53.167Z,64.80
2018-04-01T21:31:19.618Z,64.70
2018-04-01T21:33:46.443Z,65.20
2018-04-01T21:36:12.419Z,65.20
2018-04-01T21:38:38.407Z,65.20
2018-04-01T21:41:04.371Z,65.80
2018-04-01T21:43:30.354Z,65.20
2018-04-01T21:45:56.330Z,64.90
2018-04-01T21:48:22.335Z,65.20
2018-04-01T21:50:49.115Z,65.70
2018-04-01T21:53:15.119Z,65.80
2018-04-01T21:55:41.103Z,65.60
2018-04-01T21:58:07.094Z,65.60
2018-04-01T22:00:33.776Z,66.80
2018-04-01T22:02:59.750Z,66.10
2018-04-01T22:05:26.506Z,66.10
2018-04-01T22:07:52.515Z,66.10
2018-04-01T22:10:18.565Z,65.80
2018-04-01T22:12:44.562Z,66.10
2018-04-01T22:15:11.016Z,66.00
2018-04-01T22:17:37.771Z,66.30
2018-04-01T22:20:03.763Z,66.10
2018-04-01T22:22:30.503Z,66.30
2018-04-01T22:24:57.245Z,66.30
2018-04-01T22:27:24.897Z,66.40
2018-04-01T22:29:51.669Z,66.30
2018-04-01T22:32:17.686Z,66.30
2018-04-01T22:34:44.427Z,66.70
2018-04-01T22:37:11.151Z,66.40
2018-04-01T22:39:38.175Z,66.90
2018-04-01T22:42:04.181Z,66.40
2018-04-01T22:44:30.573Z,66.50
2018-04-01T22:46:57.314Z,66.70
2018-04-01T22:49:25.978Z,66.60
2018-04-01T22:51:53.778Z,66.70
2018-04-01T22:54:20.118Z,66.70
2018-04-01T22:56:46.943Z,65.90
2018-04-01T22:59:14.001Z,66.00
2018-04-01T23:01:40.751Z,66.20
2018-04-01T23:04:06.752Z,66.30
2018-04-01T23:06:33.466Z,66.30
2018-04-01T23:09:00.299Z,66.30
2018-04-01T23:11:28.707Z,66.20
2018-04-01T23:13:57.504Z,66.40
2018-04-01T23:16:25.416Z,66.50
2018-04-01T23:18:53.955Z,66.90
2018-04-01T23:21:22.559Z,66.80
2018-04-01T23:23:52.665Z,66.60
2018-04-01T23:26:20.546Z,66.60
2018-04-01T23:28:49.974Z,66.70
2018-04-01T23:31:18.302Z,66.80
2018-04-01T23:33:50.210Z,66.60
2018-04-01T23:36:19.055Z,66.60
2018-04-01T23:38:49.483Z,66.20
2018-04-01T23:41:25.132Z,66.80
2018-04-01T23:43:58.522Z,66.30
2018-04-01T23:46:26.906Z,66.50
2018-04-01T23:49:02.072Z,66.70
2018-04-01T23:51:31.511Z,66.60
2018-04-01T23:54:08.203Z,66.60
2018-04-01T23:56:38.444Z,66.70
2018-04-01T23:59:06.233Z,66.70
